sensor_id;sensor_type;location;lat;lon;timestamp;P1;durP1;ratioP1;P2;durP2;ratioP2
24421;SDS011;12600;53.326;-6.298;2023-05-14T00:01:41;9.68;;;6.93;;
24421;SDS011;12600;53.326;-6.298;2023-05-14T00:04:33;11.30;;;7.20;;
24421;SDS011;12600;53.326;-6.298;2023-05-14T00:07:23;10.10;;;6.68;;
24421;SDS011;12600;53.326;-6.298;2023-05-14T00:10:16;11.27;;;7.40;;
24421;SDS011;12600;53.326;-6.298;2023-05-14T00:13:08;11.45;;;7.13;;
24421;SDS011;12600;53.326;-6.298;2023-05-14T00:15:57;10.88;;;7.22;;
24421;SDS011;12600;53.326;-6.298;2023-05-14T00:18:47;10.35;;;6.88;;
24421;SDS011;12600;53.326;-6.298;2023-05-14T00:21:50;11.55;;;7.00;;
24421;SDS011;12600;53.326;-6.298;2023-05-14T00:27:29;13.05;;;7.28;;
24421;SDS011;12600;53.326;-6.298;2023-05-14T00:30:18;10.88;;;7.45;;
24421;SDS011;12600;53.326;-6.298;2023-05-14T00:33:11;14.18;;;6.82;;
24421;SDS011;12600;53.326;-6.298;2023-05-14T00:36:02;11.25;;;7.38;;
24421;SDS011;12600;53.326;-6.298;2023-05-14T00:38:53;13.13;;;8.63;;
24421;SDS011;12600;53.326;-6.298;2023-05-14T00:44:38;13.05;;;7.07;;
24421;SDS011;12600;53.326;-6.298;2023-05-14T00:47:30;14.63;;;8.70;;
24421;SDS011;12600;53.326;-6.298;2023-05-14T00:50:20;9.57;;;5.95;;
24421;SDS011;12600;53.326;-6.298;2023-05-14T00:53:11;12.13;;;6.40;;
24421;SDS011;12600;53.326;-6.298;2023-05-14T00:56:02;10.90;;;6.10;;
24421;SDS011;12600;53.326;-6.298;2023-05-14T00:58:53;11.10;;;6.38;;
24421;SDS011;12600;53.326;-6.298;2023-05-14T01:01:42;9.95;;;6.57;;
24421;SDS011;12600;53.326;-6.298;2023-05-14T01:04:31;9.73;;;6.45;;
24421;SDS011;12600;53.326;-6.298;2023-05-14T01:07:23;7.95;;;5.45;;
24421;SDS011;12600;53.326;-6.298;2023-05-14T01:10:19;11.85;;;6.20;;
24421;SDS011;12600;53.326;-6.298;2023-05-14T01:13:17;7.70;;;5.55;;
24421;SDS011;12600;53.326;-6.298;2023-05-14T01:16:17;11.38;;;6.28;;
24421;SDS011;12600;53.326;-6.298;2023-05-14T01:19:09;10.88;;;5.97;;
24421;SDS011;12600;53.326;-6.298;2023-05-14T01:22:14;13.02;;;6.13;;
24421;SDS011;12600;53.326;-6.298;2023-05-14T01:25:04;9.88;;;6.03;;
24421;SDS011;12600;53.326;-6.298;2023-05-14T01:27:56;10.95;;;5.93;;
24421;SDS011;12600;53.326;-6.298;2023-05-14T01:30:55;9.77;;;6.43;;
24421;SDS011;12600;53.326;-6.298;2023-05-14T01:33:49;8.95;;;6.38;;
24421;SDS011;12600;53.326;-6.298;2023-05-14T01:36:41;9.77;;;6.13;;
24421;SDS011;12600;53.326;-6.298;2023-05-14T01:39:34;12.15;;;6.57;;
24421;SDS011;12600;53.326;-6.298;2023-05-14T01:42:25;11.23;;;7.32;;
24421;SDS011;12600;53.326;-6.298;2023-05-14T01:45:15;12.55;;;7.68;;
24421;SDS011;12600;53.326;-6.298;2023-05-14T01:48:05;12.70;;;8.15;;
24421;SDS011;12600;53.326;-6.298;2023-05-14T01:50:54;13.27;;;8.50;;
24421;SDS011;12600;53.326;-6.298;2023-05-14T01:53:44;15.13;;;9.90;;
24421;SDS011;12600;53.326;-6.298;2023-05-14T01:56:34;16.08;;;9.55;;
24421;SDS011;12600;53.326;-6.298;2023-05-14T01:59:24;15.05;;;10.02;;
24421;SDS011;12600;53.326;-6.298;2023-05-14T02:02:15;14.27;;;9.70;;
24421;SDS011;12600;53.326;-6.298;2023-05-14T02:05:05;13.43;;;8.93;;
24421;SDS011;12600;53.326;-6.298;2023-05-14T02:07:56;15.93;;;8.73;;
24421;SDS011;12600;53.326;-6.298;2023-05-14T02:10:45;11.68;;;8.55;;
24421;SDS011;12600;53.326;-6.298;2023-05-14T02:13:36;12.23;;;8.15;;
24421;SDS011;12600;53.326;-6.298;2023-05-14T02:16:25;12.77;;;8.65;;
24421;SDS011;12600;53.326;-6.298;2023-05-14T02:19:14;15.32;;;9.40;;
24421;SDS011;12600;53.326;-6.298;2023-05-14T02:22:05;14.93;;;10.25;;
24421;SDS011;12600;53.326;-6.298;2023-05-14T02:24:54;16.80;;;11.30;;
24421;SDS011;12600;53.326;-6.298;2023-05-14T02:27:43;16.60;;;10.93;;
24421;SDS011;12600;53.326;-6.298;2023-05-14T02:30:34;19.98;;;11.10;;
24421;SDS011;12600;53.326;-6.298;2023-05-14T02:33:23;17.75;;;11.32;;
24421;SDS011;12600;53.326;-6.298;2023-05-14T02:36:13;17.42;;;10.95;;
24421;SDS011;12600;53.326;-6.298;2023-05-14T02:39:02;16.85;;;10.93;;
24421;SDS011;12600;53.326;-6.298;2023-05-14T02:41:52;17.85;;;12.18;;
24421;SDS011;12600;53.326;-6.298;2023-05-14T02:44:41;18.17;;;11.77;;
24421;SDS011;12600;53.326;-6.298;2023-05-14T02:47:32;18.13;;;11.93;;
24421;SDS011;12600;53.326;-6.298;2023-05-14T02:53:13;21.23;;;11.65;;
24421;SDS011;12600;53.326;-6.298;2023-05-14T02:56:03;17.15;;;11.05;;
24421;SDS011;12600;53.326;-6.298;2023-05-14T02:58:54;15.73;;;10.73;;
24421;SDS011;12600;53.326;-6.298;2023-05-14T03:01:43;14.05;;;9.90;;
24421;SDS011;12600;53.326;-6.298;2023-05-14T03:04:35;14.73;;;9.65;;
24421;SDS011;12600;53.326;-6.298;2023-05-14T03:07:24;12.88;;;8.90;;
24421;SDS011;12600;53.326;-6.298;2023-05-14T03:10:14;14.90;;;9.80;;
24421;SDS011;12600;53.326;-6.298;2023-05-14T03:13:04;14.40;;;9.35;;
24421;SDS011;12600;53.326;-6.298;2023-05-14T03:15:53;15.93;;;9.25;;
24421;SDS011;12600;53.326;-6.298;2023-05-14T03:18:43;15.60;;;8.55;;
24421;SDS011;12600;53.326;-6.298;2023-05-14T03:21:34;14.38;;;9.75;;
24421;SDS011;12600;53.326;-6.298;2023-05-14T03:24:24;14.55;;;9.05;;
24421;SDS011;12600;53.326;-6.298;2023-05-14T03:27:13;14.98;;;9.65;;
24421;SDS011;12600;53.326;-6.298;2023-05-14T03:30:03;13.25;;;9.82;;
24421;SDS011;12600;53.326;-6.298;2023-05-14T03:32:54;16.00;;;10.10;;
24421;SDS011;12600;53.326;-6.298;2023-05-14T03:35:44;17.45;;;10.70;;
24421;SDS011;12600;53.326;-6.298;2023-05-14T03:38:35;15.63;;;10.68;;
24421;SDS011;12600;53.326;-6.298;2023-05-14T03:41:24;16.35;;;10.95;;
24421;SDS011;12600;53.326;-6.298;2023-05-14T03:44:13;17.10;;;10.82;;
24421;SDS011;12600;53.326;-6.298;2023-05-14T03:47:03;15.27;;;10.73;;
24421;SDS011;12600;53.326;-6.298;2023-05-14T03:49:53;16.40;;;10.23;;
24421;SDS011;12600;53.326;-6.298;2023-05-14T03:52:43;14.00;;;10.25;;
24421;SDS011;12600;53.326;-6.298;2023-05-14T03:55:34;17.13;;;10.40;;
24421;SDS011;12600;53.326;-6.298;2023-05-14T03:58:23;15.88;;;11.10;;
24421;SDS011;12600;53.326;-6.298;2023-05-14T04:01:13;13.95;;;10.48;;
24421;SDS011;12600;53.326;-6.298;2023-05-14T04:04:03;16.35;;;11.00;;
24421;SDS011;12600;53.326;-6.298;2023-05-14T04:06:52;14.68;;;10.57;;
24421;SDS011;12600;53.326;-6.298;2023-05-14T04:09:42;16.55;;;11.02;;
24421;SDS011;12600;53.326;-6.298;2023-05-14T04:12:32;14.88;;;11.15;;
24421;SDS011;12600;53.326;-6.298;2023-05-14T04:15:22;16.02;;;11.15;;
24421;SDS011;12600;53.326;-6.298;2023-05-14T04:18:12;15.15;;;11.43;;
24421;SDS011;12600;53.326;-6.298;2023-05-14T04:21:02;18.45;;;10.85;;
24421;SDS011;12600;53.326;-6.298;2023-05-14T04:23:51;19.38;;;11.48;;
24421;SDS011;12600;53.326;-6.298;2023-05-14T04:26:41;17.08;;;11.82;;
24421;SDS011;12600;53.326;-6.298;2023-05-14T04:29:31;19.67;;;12.32;;
24421;SDS011;12600;53.326;-6.298;2023-05-14T04:32:20;17.25;;;12.23;;
24421;SDS011;12600;53.326;-6.298;2023-05-14T04:35:10;17.10;;;11.65;;
24421;SDS011;12600;53.326;-6.298;2023-05-14T04:38:00;16.83;;;11.82;;
24421;SDS011;12600;53.326;-6.298;2023-05-14T04:40:49;16.50;;;10.93;;
24421;SDS011;12600;53.326;-6.298;2023-05-14T04:43:38;14.40;;;10.80;;
24421;SDS011;12600;53.326;-6.298;2023-05-14T04:46:29;14.10;;;10.43;;
24421;SDS011;12600;53.326;-6.298;2023-05-14T04:49:19;17.40;;;11.35;;
24421;SDS011;12600;53.326;-6.298;2023-05-14T04:52:08;17.08;;;11.98;;
24421;SDS011;12600;53.326;-6.298;2023-05-14T04:54:57;15.88;;;11.48;;
24421;SDS011;12600;53.326;-6.298;2023-05-14T04:57:47;17.67;;;11.82;;
24421;SDS011;12600;53.326;-6.298;2023-05-14T05:00:36;17.95;;;11.95;;
24421;SDS011;12600;53.326;-6.298;2023-05-14T05:03:27;15.02;;;11.60;;
24421;SDS011;12600;53.326;-6.298;2023-05-14T05:06:17;17.92;;;11.57;;
24421;SDS011;12600;53.326;-6.298;2023-05-14T05:09:06;17.50;;;12.30;;
24421;SDS011;12600;53.326;-6.298;2023-05-14T05:11:55;18.35;;;12.50;;
24421;SDS011;12600;53.326;-6.298;2023-05-14T05:14:45;19.90;;;12.60;;
24421;SDS011;12600;53.326;-6.298;2023-05-14T05:17:34;20.13;;;12.63;;
24421;SDS011;12600;53.326;-6.298;2023-05-14T05:20:25;17.10;;;12.43;;
24421;SDS011;12600;53.326;-6.298;2023-05-14T05:23:15;20.98;;;12.63;;
24421;SDS011;12600;53.326;-6.298;2023-05-14T05:26:04;20.88;;;12.75;;
24421;SDS011;12600;53.326;-6.298;2023-05-14T05:28:53;20.80;;;12.20;;
24421;SDS011;12600;53.326;-6.298;2023-05-14T05:31:43;17.50;;;11.88;;
24421;SDS011;12600;53.326;-6.298;2023-05-14T05:34:32;20.13;;;12.82;;
24421;SDS011;12600;53.326;-6.298;2023-05-14T05:37:23;19.45;;;12.43;;
24421;SDS011;12600;53.326;-6.298;2023-05-14T05:40:13;17.25;;;11.70;;
24421;SDS011;12600;53.326;-6.298;2023-05-14T05:43:05;17.65;;;11.70;;
24421;SDS011;12600;53.326;-6.298;2023-05-14T05:45:56;18.67;;;11.87;;
24421;SDS011;12600;53.326;-6.298;2023-05-14T05:48:45;14.23;;;10.85;;
24421;SDS011;12600;53.326;-6.298;2023-05-14T05:51:35;14.60;;;11.07;;
24421;SDS011;12600;53.326;-6.298;2023-05-14T05:54:27;15.65;;;10.75;;
24421;SDS011;12600;53.326;-6.298;2023-05-14T05:57:19;15.65;;;10.73;;
24421;SDS011;12600;53.326;-6.298;2023-05-14T06:00:12;16.25;;;10.45;;
24421;SDS011;12600;53.326;-6.298;2023-05-14T06:03:02;15.70;;;10.30;;
24421;SDS011;12600;53.326;-6.298;2023-05-14T06:05:55;16.42;;;10.52;;
24421;SDS011;12600;53.326;-6.298;2023-05-14T06:08:44;14.70;;;10.25;;
24421;SDS011;12600;53.326;-6.298;2023-05-14T06:11:40;15.55;;;10.77;;
24421;SDS011;12600;53.326;-6.298;2023-05-14T06:14:36;16.30;;;11.43;;
24421;SDS011;12600;53.326;-6.298;2023-05-14T06:17:26;15.45;;;10.77;;
24421;SDS011;12600;53.326;-6.298;2023-05-14T06:20:15;17.65;;;11.32;;
24421;SDS011;12600;53.326;-6.298;2023-05-14T06:23:05;20.88;;;11.88;;
24421;SDS011;12600;53.326;-6.298;2023-05-14T06:25:57;17.98;;;11.65;;
24421;SDS011;12600;53.326;-6.298;2023-05-14T06:28:48;20.85;;;11.98;;
24421;SDS011;12600;53.326;-6.298;2023-05-14T06:31:37;16.00;;;10.13;;
24421;SDS011;12600;53.326;-6.298;2023-05-14T06:34:27;19.30;;;11.05;;
24421;SDS011;12600;53.326;-6.298;2023-05-14T06:37:16;12.60;;;9.65;;
24421;SDS011;12600;53.326;-6.298;2023-05-14T06:40:05;14.73;;;9.57;;
24421;SDS011;12600;53.326;-6.298;2023-05-14T06:42:58;11.18;;;8.27;;
24421;SDS011;12600;53.326;-6.298;2023-05-14T06:45:50;12.75;;;8.10;;
24421;SDS011;12600;53.326;-6.298;2023-05-14T06:48:40;10.45;;;6.47;;
24421;SDS011;12600;53.326;-6.298;2023-05-14T06:51:35;8.33;;;6.00;;
24421;SDS011;12600;53.326;-6.298;2023-05-14T06:54:28;10.02;;;6.15;;
24421;SDS011;12600;53.326;-6.298;2023-05-14T06:57:17;10.75;;;6.38;;
24421;SDS011;12600;53.326;-6.298;2023-05-14T07:00:07;9.82;;;6.72;;
24421;SDS011;12600;53.326;-6.298;2023-05-14T07:02:59;12.02;;;7.10;;
24421;SDS011;12600;53.326;-6.298;2023-05-14T07:05:49;10.95;;;6.90;;
24421;SDS011;12600;53.326;-6.298;2023-05-14T07:08:41;11.95;;;7.65;;
24421;SDS011;12600;53.326;-6.298;2023-05-14T07:11:32;13.48;;;7.13;;
24421;SDS011;12600;53.326;-6.298;2023-05-14T07:14:24;10.70;;;6.72;;
24421;SDS011;12600;53.326;-6.298;2023-05-14T07:17:14;10.50;;;6.15;;
24421;SDS011;12600;53.326;-6.298;2023-05-14T07:20:07;10.02;;;7.00;;
24421;SDS011;12600;53.326;-6.298;2023-05-14T07:22:58;9.90;;;6.40;;
24421;SDS011;12600;53.326;-6.298;2023-05-14T07:25:47;16.25;;;5.65;;
24421;SDS011;12600;53.326;-6.298;2023-05-14T07:28:39;8.98;;;6.20;;
24421;SDS011;12600;53.326;-6.298;2023-05-14T07:31:29;7.90;;;5.72;;
24421;SDS011;12600;53.326;-6.298;2023-05-14T07:34:18;8.52;;;5.40;;
24421;SDS011;12600;53.326;-6.298;2023-05-14T07:37:09;7.47;;;4.95;;
24421;SDS011;12600;53.326;-6.298;2023-05-14T07:39:58;7.00;;;5.13;;
24421;SDS011;12600;53.326;-6.298;2023-05-14T07:42:48;8.70;;;5.60;;
24421;SDS011;12600;53.326;-6.298;2023-05-14T07:45:40;8.85;;;5.70;;
24421;SDS011;12600;53.326;-6.298;2023-05-14T07:48:35;8.45;;;5.22;;
24421;SDS011;12600;53.326;-6.298;2023-05-14T07:51:27;7.55;;;5.22;;
24421;SDS011;12600;53.326;-6.298;2023-05-14T07:54:20;8.13;;;5.50;;
24421;SDS011;12600;53.326;-6.298;2023-05-14T07:57:10;8.27;;;5.88;;
24421;SDS011;12600;53.326;-6.298;2023-05-14T07:59:59;8.05;;;4.32;;
24421;SDS011;12600;53.326;-6.298;2023-05-14T08:02:58;6.90;;;4.45;;
24421;SDS011;12600;53.326;-6.298;2023-05-14T08:05:47;10.02;;;4.50;;
24421;SDS011;12600;53.326;-6.298;2023-05-14T08:08:37;6.20;;;4.18;;
24421;SDS011;12600;53.326;-6.298;2023-05-14T08:11:28;5.38;;;4.05;;
24421;SDS011;12600;53.326;-6.298;2023-05-14T08:14:26;6.50;;;4.28;;
24421;SDS011;12600;53.326;-6.298;2023-05-14T08:17:16;5.75;;;3.75;;
24421;SDS011;12600;53.326;-6.298;2023-05-14T08:20:06;7.47;;;3.75;;
24421;SDS011;12600;53.326;-6.298;2023-05-14T08:22:57;6.85;;;3.60;;
24421;SDS011;12600;53.326;-6.298;2023-05-14T08:25:47;5.40;;;3.55;;
24421;SDS011;12600;53.326;-6.298;2023-05-14T08:28:41;7.07;;;3.40;;
24421;SDS011;12600;53.326;-6.298;2023-05-14T08:31:35;7.75;;;4.28;;
24421;SDS011;12600;53.326;-6.298;2023-05-14T08:34:29;6.78;;;3.92;;
24421;SDS011;12600;53.326;-6.298;2023-05-14T08:37:18;6.05;;;3.97;;
24421;SDS011;12600;53.326;-6.298;2023-05-14T08:40:10;7.03;;;3.38;;
24421;SDS011;12600;53.326;-6.298;2023-05-14T08:43:01;7.25;;;4.03;;
24421;SDS011;12600;53.326;-6.298;2023-05-14T08:45:56;7.00;;;4.45;;
24421;SDS011;12600;53.326;-6.298;2023-05-14T08:48:49;7.95;;;4.53;;
24421;SDS011;12600;53.326;-6.298;2023-05-14T08:51:47;7.60;;;4.35;;
24421;SDS011;12600;53.326;-6.298;2023-05-14T08:54:36;7.78;;;4.70;;
24421;SDS011;12600;53.326;-6.298;2023-05-14T08:57:27;7.22;;;4.80;;
24421;SDS011;12600;53.326;-6.298;2023-05-14T09:00:19;5.25;;;3.60;;
24421;SDS011;12600;53.326;-6.298;2023-05-14T09:03:11;7.95;;;4.38;;
24421;SDS011;12600;53.326;-6.298;2023-05-14T09:06:01;5.68;;;3.50;;
24421;SDS011;12600;53.326;-6.298;2023-05-14T09:08:51;4.30;;;3.30;;
24421;SDS011;12600;53.326;-6.298;2023-05-14T09:11:41;6.30;;;3.22;;
24421;SDS011;12600;53.326;-6.298;2023-05-14T09:14:33;6.30;;;3.75;;
24421;SDS011;12600;53.326;-6.298;2023-05-14T09:17:24;9.38;;;3.45;;
24421;SDS011;12600;53.326;-6.298;2023-05-14T09:20:16;7.30;;;3.70;;
24421;SDS011;12600;53.326;-6.298;2023-05-14T09:23:06;4.68;;;3.47;;
24421;SDS011;12600;53.326;-6.298;2023-05-14T09:25:55;4.80;;;2.95;;
24421;SDS011;12600;53.326;-6.298;2023-05-14T09:28:44;7.15;;;3.78;;
24421;SDS011;12600;53.326;-6.298;2023-05-14T09:31:34;5.57;;;3.20;;
24421;SDS011;12600;53.326;-6.298;2023-05-14T09:34:24;5.20;;;3.28;;
24421;SDS011;12600;53.326;-6.298;2023-05-14T09:37:18;5.05;;;3.05;;
24421;SDS011;12600;53.326;-6.298;2023-05-14T09:40:09;7.32;;;2.78;;
24421;SDS011;12600;53.326;-6.298;2023-05-14T09:43:01;5.00;;;3.17;;
24421;SDS011;12600;53.326;-6.298;2023-05-14T09:45:50;6.05;;;2.40;;
24421;SDS011;12600;53.326;-6.298;2023-05-14T09:48:40;4.50;;;2.55;;
24421;SDS011;12600;53.326;-6.298;2023-05-14T09:51:29;3.40;;;2.40;;
24421;SDS011;12600;53.326;-6.298;2023-05-14T09:54:20;2.60;;;1.90;;
24421;SDS011;12600;53.326;-6.298;2023-05-14T09:57:10;2.80;;;1.70;;
24421;SDS011;12600;53.326;-6.298;2023-05-14T09:59:59;3.28;;;1.85;;
24421;SDS011;12600;53.326;-6.298;2023-05-14T10:02:51;2.15;;;1.40;;
24421;SDS011;12600;53.326;-6.298;2023-05-14T10:05:42;4.13;;;1.40;;
24421;SDS011;12600;53.326;-6.298;2023-05-14T10:08:32;2.25;;;1.50;;
24421;SDS011;12600;53.326;-6.298;2023-05-14T10:11:24;2.50;;;1.70;;
24421;SDS011;12600;53.326;-6.298;2023-05-14T10:14:21;3.90;;;2.00;;
24421;SDS011;12600;53.326;-6.298;2023-05-14T10:17:16;3.20;;;1.70;;
24421;SDS011;12600;53.326;-6.298;2023-05-14T10:20:09;2.63;;;1.58;;
24421;SDS011;12600;53.326;-6.298;2023-05-14T10:23:02;3.10;;;1.80;;
24421;SDS011;12600;53.326;-6.298;2023-05-14T10:25:52;2.60;;;1.88;;
24421;SDS011;12600;53.326;-6.298;2023-05-14T10:28:43;5.38;;;2.35;;
24421;SDS011;12600;53.326;-6.298;2023-05-14T10:31:45;2.50;;;1.80;;
24421;SDS011;12600;53.326;-6.298;2023-05-14T10:34:38;2.90;;;2.03;;
24421;SDS011;12600;53.326;-6.298;2023-05-14T10:37:30;3.33;;;2.42;;
24421;SDS011;12600;53.326;-6.298;2023-05-14T10:40:20;4.10;;;2.35;;
24421;SDS011;12600;53.326;-6.298;2023-05-14T10:43:12;3.63;;;2.30;;
24421;SDS011;12600;53.326;-6.298;2023-05-14T10:46:04;3.55;;;2.10;;
24421;SDS011;12600;53.326;-6.298;2023-05-14T10:48:55;3.83;;;2.17;;
24421;SDS011;12600;53.326;-6.298;2023-05-14T10:51:46;4.80;;;2.22;;
24421;SDS011;12600;53.326;-6.298;2023-05-14T10:54:36;3.90;;;2.35;;
24421;SDS011;12600;53.326;-6.298;2023-05-14T10:57:27;3.00;;;2.20;;
24421;SDS011;12600;53.326;-6.298;2023-05-14T11:00:18;3.33;;;2.30;;
24421;SDS011;12600;53.326;-6.298;2023-05-14T11:03:15;4.13;;;2.50;;
24421;SDS011;12600;53.326;-6.298;2023-05-14T11:06:05;3.70;;;2.60;;
24421;SDS011;12600;53.326;-6.298;2023-05-14T11:08:56;4.30;;;3.00;;
24421;SDS011;12600;53.326;-6.298;2023-05-14T11:11:47;3.85;;;2.63;;
24421;SDS011;12600;53.326;-6.298;2023-05-14T11:14:41;4.32;;;3.10;;
24421;SDS011;12600;53.326;-6.298;2023-05-14T11:17:30;3.80;;;2.67;;
24421;SDS011;12600;53.326;-6.298;2023-05-14T11:20:24;3.83;;;2.60;;
24421;SDS011;12600;53.326;-6.298;2023-05-14T11:23:13;3.75;;;2.60;;
24421;SDS011;12600;53.326;-6.298;2023-05-14T11:26:03;3.17;;;2.40;;
24421;SDS011;12600;53.326;-6.298;2023-05-14T11:28:52;3.53;;;2.50;;
24421;SDS011;12600;53.326;-6.298;2023-05-14T11:31:41;2.60;;;1.92;;
24421;SDS011;12600;53.326;-6.298;2023-05-14T11:34:31;3.95;;;1.70;;
24421;SDS011;12600;53.326;-6.298;2023-05-14T11:37:22;3.20;;;1.70;;
24421;SDS011;12600;53.326;-6.298;2023-05-14T11:40:13;5.82;;;1.70;;
24421;SDS011;12600;53.326;-6.298;2023-05-14T11:43:03;2.88;;;1.75;;
24421;SDS011;12600;53.326;-6.298;2023-05-14T11:45:53;3.60;;;2.00;;
24421;SDS011;12600;53.326;-6.298;2023-05-14T11:48:43;3.22;;;1.67;;
24421;SDS011;12600;53.326;-6.298;2023-05-14T11:51:35;3.95;;;1.70;;
24421;SDS011;12600;53.326;-6.298;2023-05-14T11:54:26;5.03;;;1.95;;
24421;SDS011;12600;53.326;-6.298;2023-05-14T11:57:17;3.42;;;1.77;;
24421;SDS011;12600;53.326;-6.298;2023-05-14T12:00:13;4.55;;;1.80;;
24421;SDS011;12600;53.326;-6.298;2023-05-14T12:03:08;2.95;;;1.65;;
24421;SDS011;12600;53.326;-6.298;2023-05-14T12:06:00;3.50;;;1.95;;
24421;SDS011;12600;53.326;-6.298;2023-05-14T12:08:54;6.32;;;1.98;;
24421;SDS011;12600;53.326;-6.298;2023-05-14T12:11:45;4.45;;;2.22;;
24421;SDS011;12600;53.326;-6.298;2023-05-14T12:14:36;2.60;;;1.90;;
24421;SDS011;12600;53.326;-6.298;2023-05-14T12:17:27;3.40;;;1.90;;
24421;SDS011;12600;53.326;-6.298;2023-05-14T12:20:17;3.28;;;1.98;;
24421;SDS011;12600;53.326;-6.298;2023-05-14T12:23:09;2.53;;;2.00;;
24421;SDS011;12600;53.326;-6.298;2023-05-14T12:26:00;4.47;;;2.50;;
24421;SDS011;12600;53.326;-6.298;2023-05-14T12:28:57;3.63;;;2.17;;
24421;SDS011;12600;53.326;-6.298;2023-05-14T12:31:48;3.38;;;2.05;;
24421;SDS011;12600;53.326;-6.298;2023-05-14T12:34:38;2.60;;;1.77;;
24421;SDS011;12600;53.326;-6.298;2023-05-14T12:37:27;3.97;;;2.00;;
24421;SDS011;12600;53.326;-6.298;2023-05-14T12:40:17;4.90;;;2.45;;
24421;SDS011;12600;53.326;-6.298;2023-05-14T12:43:06;5.38;;;1.77;;
24421;SDS011;12600;53.326;-6.298;2023-05-14T12:45:57;4.93;;;2.30;;
24421;SDS011;12600;53.326;-6.298;2023-05-14T12:48:47;6.97;;;1.98;;
24421;SDS011;12600;53.326;-6.298;2023-05-14T12:51:39;4.88;;;1.90;;
24421;SDS011;12600;53.326;-6.298;2023-05-14T12:54:28;5.55;;;2.08;;
24421;SDS011;12600;53.326;-6.298;2023-05-14T12:57:18;7.50;;;2.45;;
24421;SDS011;12600;53.326;-6.298;2023-05-14T13:00:07;6.30;;;2.17;;
24421;SDS011;12600;53.326;-6.298;2023-05-14T13:03:04;5.13;;;1.98;;
24421;SDS011;12600;53.326;-6.298;2023-05-14T13:05:53;7.38;;;2.47;;
24421;SDS011;12600;53.326;-6.298;2023-05-14T13:08:44;9.95;;;4.63;;
24421;SDS011;12600;53.326;-6.298;2023-05-14T13:11:36;4.97;;;2.38;;
24421;SDS011;12600;53.326;-6.298;2023-05-14T13:14:25;7.97;;;2.10;;
24421;SDS011;12600;53.326;-6.298;2023-05-14T13:17:15;4.88;;;2.08;;
24421;SDS011;12600;53.326;-6.298;2023-05-14T13:20:09;9.70;;;2.50;;
24421;SDS011;12600;53.326;-6.298;2023-05-14T13:22:59;5.28;;;2.42;;
24421;SDS011;12600;53.326;-6.298;2023-05-14T13:25:48;6.47;;;2.30;;
24421;SDS011;12600;53.326;-6.298;2023-05-14T13:28:40;7.65;;;2.28;;
24421;SDS011;12600;53.326;-6.298;2023-05-14T13:31:30;6.07;;;2.20;;
24421;SDS011;12600;53.326;-6.298;2023-05-14T13:34:26;6.25;;;2.20;;
24421;SDS011;12600;53.326;-6.298;2023-05-14T13:37:19;7.88;;;2.40;;
24421;SDS011;12600;53.326;-6.298;2023-05-14T13:40:13;8.75;;;2.60;;
24421;SDS011;12600;53.326;-6.298;2023-05-14T13:43:04;5.43;;;2.45;;
24421;SDS011;12600;53.326;-6.298;2023-05-14T13:45:55;8.63;;;2.95;;
24421;SDS011;12600;53.326;-6.298;2023-05-14T13:48:47;4.97;;;2.95;;
24421;SDS011;12600;53.326;-6.298;2023-05-14T13:51:40;8.05;;;2.92;;
24421;SDS011;12600;53.326;-6.298;2023-05-14T13:54:36;9.82;;;2.75;;
24421;SDS011;12600;53.326;-6.298;2023-05-14T13:57:25;8.77;;;2.88;;
24421;SDS011;12600;53.326;-6.298;2023-05-14T14:00:15;9.63;;;3.33;;
24421;SDS011;12600;53.326;-6.298;2023-05-14T14:03:05;7.13;;;2.92;;
24421;SDS011;12600;53.326;-6.298;2023-05-14T14:05:58;7.22;;;3.22;;
24421;SDS011;12600;53.326;-6.298;2023-05-14T14:08:47;7.82;;;3.00;;
24421;SDS011;12600;53.326;-6.298;2023-05-14T14:11:38;8.13;;;2.85;;
24421;SDS011;12600;53.326;-6.298;2023-05-14T14:14:28;7.63;;;3.20;;
24421;SDS011;12600;53.326;-6.298;2023-05-14T14:17:17;6.85;;;3.08;;
24421;SDS011;12600;53.326;-6.298;2023-05-14T14:20:07;9.55;;;3.10;;
24421;SDS011;12600;53.326;-6.298;2023-05-14T14:22:57;9.90;;;3.22;;
24421;SDS011;12600;53.326;-6.298;2023-05-14T14:25:47;9.70;;;2.92;;
24421;SDS011;12600;53.326;-6.298;2023-05-14T14:28:38;12.88;;;3.35;;
24421;SDS011;12600;53.326;-6.298;2023-05-14T14:31:27;8.05;;;3.13;;
24421;SDS011;12600;53.326;-6.298;2023-05-14T14:34:16;11.10;;;3.42;;
24421;SDS011;12600;53.326;-6.298;2023-05-14T14:37:09;8.05;;;3.42;;
24421;SDS011;12600;53.326;-6.298;2023-05-14T14:39:58;9.82;;;3.20;;
24421;SDS011;12600;53.326;-6.298;2023-05-14T14:42:47;9.50;;;3.20;;
24421;SDS011;12600;53.326;-6.298;2023-05-14T14:45:38;13.35;;;3.97;;
24421;SDS011;12600;53.326;-6.298;2023-05-14T14:48:29;10.32;;;3.35;;
24421;SDS011;12600;53.326;-6.298;2023-05-14T14:51:26;11.50;;;3.55;;
24421;SDS011;12600;53.326;-6.298;2023-05-14T14:54:16;10.85;;;4.00;;
24421;SDS011;12600;53.326;-6.298;2023-05-14T14:57:05;9.68;;;3.92;;
24421;SDS011;12600;53.326;-6.298;2023-05-14T14:59:54;8.70;;;3.67;;
24421;SDS011;12600;53.326;-6.298;2023-05-14T15:02:47;8.90;;;3.60;;
24421;SDS011;12600;53.326;-6.298;2023-05-14T15:05:36;10.27;;;4.07;;
24421;SDS011;12600;53.326;-6.298;2023-05-14T15:08:26;10.85;;;4.57;;
24421;SDS011;12600;53.326;-6.298;2023-05-14T15:11:16;13.23;;;4.10;;
24421;SDS011;12600;53.326;-6.298;2023-05-14T15:14:05;15.10;;;4.30;;
24421;SDS011;12600;53.326;-6.298;2023-05-14T15:16:55;9.88;;;3.90;;
24421;SDS011;12600;53.326;-6.298;2023-05-14T15:19:45;10.05;;;3.83;;
24421;SDS011;12600;53.326;-6.298;2023-05-14T15:22:35;11.73;;;3.65;;
24421;SDS011;12600;53.326;-6.298;2023-05-14T15:25:24;9.77;;;3.70;;
24421;SDS011;12600;53.326;-6.298;2023-05-14T15:28:14;14.02;;;3.67;;
24421;SDS011;12600;53.326;-6.298;2023-05-14T15:31:04;10.48;;;3.58;;
24421;SDS011;12600;53.326;-6.298;2023-05-14T15:33:53;10.32;;;3.38;;
24421;SDS011;12600;53.326;-6.298;2023-05-14T15:36:44;17.00;;;3.95;;
24421;SDS011;12600;53.326;-6.298;2023-05-14T15:39:34;8.90;;;3.40;;
24421;SDS011;12600;53.326;-6.298;2023-05-14T15:42:23;12.82;;;3.30;;
24421;SDS011;12600;53.326;-6.298;2023-05-14T15:45:13;9.05;;;3.00;;
24421;SDS011;12600;53.326;-6.298;2023-05-14T15:48:02;11.98;;;3.33;;
24421;SDS011;12600;53.326;-6.298;2023-05-14T15:50:52;10.75;;;3.00;;
24421;SDS011;12600;53.326;-6.298;2023-05-14T15:53:43;10.15;;;2.75;;
24421;SDS011;12600;53.326;-6.298;2023-05-14T15:56:32;6.97;;;2.60;;
24421;SDS011;12600;53.326;-6.298;2023-05-14T15:59:21;9.32;;;2.65;;
24421;SDS011;12600;53.326;-6.298;2023-05-14T16:02:11;10.77;;;2.97;;
24421;SDS011;12600;53.326;-6.298;2023-05-14T16:05:00;10.20;;;3.17;;
24421;SDS011;12600;53.326;-6.298;2023-05-14T16:07:50;9.85;;;3.03;;
24421;SDS011;12600;53.326;-6.298;2023-05-14T16:10:41;10.15;;;2.92;;
24421;SDS011;12600;53.326;-6.298;2023-05-14T16:13:30;10.55;;;3.08;;
24421;SDS011;12600;53.326;-6.298;2023-05-14T16:16:19;14.05;;;3.03;;
24421;SDS011;12600;53.326;-6.298;2023-05-14T16:19:09;9.00;;;2.58;;
24421;SDS011;12600;53.326;-6.298;2023-05-14T16:21:59;11.88;;;2.58;;
24421;SDS011;12600;53.326;-6.298;2023-05-14T16:24:48;6.03;;;2.30;;
24421;SDS011;12600;53.326;-6.298;2023-05-14T16:27:39;9.75;;;2.50;;
24421;SDS011;12600;53.326;-6.298;2023-05-14T16:30:28;7.63;;;2.45;;
24421;SDS011;12600;53.326;-6.298;2023-05-14T16:33:18;7.40;;;2.60;;
24421;SDS011;12600;53.326;-6.298;2023-05-14T16:36:07;7.03;;;2.30;;
24421;SDS011;12600;53.326;-6.298;2023-05-14T16:38:57;9.80;;;2.50;;
24421;SDS011;12600;53.326;-6.298;2023-05-14T16:41:49;7.77;;;2.30;;
24421;SDS011;12600;53.326;-6.298;2023-05-14T16:44:40;9.05;;;2.50;;
24421;SDS011;12600;53.326;-6.298;2023-05-14T16:47:29;9.57;;;2.00;;
24421;SDS011;12600;53.326;-6.298;2023-05-14T16:50:18;9.40;;;2.47;;
24421;SDS011;12600;53.326;-6.298;2023-05-14T16:53:08;6.95;;;1.50;;